Time;durP1;ratioP1;P1;durP2;ratioP2;P2;SDS_P1;SDS_P2;PMS_P1;PMS_P2;Temp;Humidity;BMP_temperature;BMP_pressure;BME280_temperature;BME280_humidity;BME280_pressure;Samples;Min_cycle;Max_cycle;Signal;HPM_P1;HPM_P2
2021/06/16 00:00:01;;;;;;;8.95;4.80;;;;;;;16.81;82.79;99073.39;1729147;81;21527;-72
2021/06/16 00:02:28;;;;;;;7.85;5.22;;;;;;;16.81;82.92;99070.63;1705673;82;20961;-72
2021/06/16 00:04:54;;;;;;;9.70;5.05;;;;;;;16.82;82.95;99077.77;1738609;81;20992;-72
2021/06/16 00:07:21;;;;;;;11.05;5.20;;;;;;;16.82;83.07;99078.36;1730560;82;21157;-72
2021/06/16 00:09:47;;;;;;;5.55;5.05;;;;;;;16.80;83.25;99077.92;1724648;82;20978;-71
2021/06/16 00:12:14;;;;;;;5.92;5.15;;;;;;;16.78;83.58;99082.45;1727768;82;20928;-72
2021/06/16 00:14:41;;;;;;;5.85;5.22;;;;;;;16.77;83.90;99067.57;1730077;81;21899;-72
2021/06/16 00:17:08;;;;;;;8.73;5.12;;;;;;;16.75;84.11;99073.48;1728936;82;20936;-72
2021/06/16 00:19:35;;;;;;;6.20;5.08;;;;;;;16.73;84.26;99072.28;1731992;82;21138;-72
2021/06/16 00:22:01;;;;;;;9.60;5.65;;;;;;;16.72;84.44;99072.86;1735498;82;21554;-72
2021/06/16 00:24:28;;;;;;;11.05;5.80;;;;;;;16.72;84.68;99076.22;1740102;81;20932;-72
2021/06/16 00:26:54;;;;;;;8.13;5.90;;;;;;;16.70;84.89;99074.40;1737630;81;20997;-72
2021/06/16 00:29:21;;;;;;;11.65;6.10;;;;;;;16.68;85.14;99073.97;1725822;81;20983;-71
2021/06/16 00:31:47;;;;;;;10.48;5.95;;;;;;;16.65;85.40;99072.73;1732304;81;22096;-72
2021/06/16 00:34:14;;;;;;;8.13;5.42;;;;;;;16.64;85.52;99076.67;1730038;82;21416;-71
2021/06/16 00:36:42;;;;;;;6.47;5.83;;;;;;;16.61;85.77;99076.58;1733126;81;20853;-71
2021/06/16 00:39:09;;;;;;;10.25;5.85;;;;;;;16.58;86.08;99078.11;1726959;80;20971;-72
2021/06/16 00:41:36;;;;;;;8.85;5.92;;;;;;;16.56;86.37;99074.09;1733372;82;21022;-72
2021/06/16 00:44:04;;;;;;;7.78;5.72;;;;;;;16.56;86.57;99072.72;1726351;82;21543;-71
2021/06/16 00:46:32;;;;;;;7.25;5.75;;;;;;;16.54;86.69;99070.31;1727014;82;21052;-72
2021/06/16 00:48:59;;;;;;;8.53;6.03;;;;;;;16.53;86.90;99062.36;1736571;82;21447;-71
2021/06/16 00:51:25;;;;;;;6.92;5.35;;;;;;;16.53;87.07;99074.25;1735703;82;20896;-71
2021/06/16 00:53:52;;;;;;;7.47;6.12;;;;;;;16.53;87.11;99080.38;1728917;81;21030;-71
2021/06/16 00:56:18;;;;;;;9.08;6.00;;;;;;;16.49;87.29;99081.11;1730274;82;21088;-71
2021/06/16 00:58:45;;;;;;;9.35;6.05;;;;;;;16.46;87.64;99077.68;1733924;82;21032;-72
2021/06/16 01:01:20;;;;;;;7.42;6.40;;;;;;;16.46;87.89;99082.42;1728874;82;20970;-71
2021/06/16 01:03:58;;;;;;;7.03;6.10;;;;;;;16.46;88.03;99079.06;1720978;82;20976;-72
2021/06/16 01:06:38;;;;;;;6.97;6.28;;;;;;;16.45;88.17;99078.05;1723377;82;20951;-71
2021/06/16 01:09:19;;;;;;;7.00;5.70;;;;;;;16.44;88.23;99070.90;1725022;82;21809;-72
2021/06/16 01:12:26;;;;;;;7.75;6.20;;;;;;;16.40;88.41;99073.60;1718721;82;20921;-72
2021/06/16 01:15:09;;;;;;;12.50;6.15;;;;;;;16.37;88.59;99079.88;1724783;82;20940;-71
2021/06/16 01:17:51;;;;;;;7.05;6.28;;;;;;;16.35;88.91;99072.52;1729202;82;20943;-72
2021/06/16 01:20:39;;;;;;;9.85;6.33;;;;;;;16.33;89.25;99072.08;1726971;82;21006;-72
2021/06/16 01:23:26;;;;;;;7.15;6.20;;;;;;;16.32;89.50;99069.67;1730138;82;21126;-72
2021/06/16 01:26:03;;;;;;;8.53;6.35;;;;;;;16.32;89.79;99067.70;1734017;82;20935;-72
2021/06/16 01:28:37;;;;;;;7.70;6.75;;;;;;;16.35;90.00;99072.52;1717036;82;21451;-72
2021/06/16 01:31:03;;;;;;;9.70;6.67;;;;;;;16.38;90.02;99078.70;1703874;81;21518;-71
2021/06/16 01:33:30;;;;;;;7.85;6.15;;;;;;;16.42;89.92;99084.31;1737702;81;20861;-71
2021/06/16 01:35:56;;;;;;;8.33;7.33;;;;;;;16.46;89.77;99084.61;1736910;82;21129;-72
2021/06/16 01:38:23;;;;;;;11.30;6.70;;;;;;;16.49;89.58;99092.19;1694390;82;21015;-72
2021/06/16 01:40:53;;;;;;;7.55;6.85;;;;;;;16.50;89.55;99092.41;1724774;82;20955;-71
2021/06/16 01:43:20;;;;;;;8.48;6.92;;;;;;;16.49;89.58;99096.92;1728400;82;21007;-72
2021/06/16 01:45:48;;;;;;;7.72;6.72;;;;;;;16.50;89.66;99102.69;1729037;82;20861;-71
2021/06/16 01:48:17;;;;;;;12.73;6.85;;;;;;;16.50;89.68;99100.72;1729314;82;21169;-71
2021/06/16 01:50:44;;;;;;;10.80;6.97;;;;;;;16.51;89.69;99105.67;1725043;81;20979;-71
2021/06/16 01:53:10;;;;;;;8.23;6.65;;;;;;;16.54;89.83;99105.53;1738020;81;20959;-72
2021/06/16 01:55:38;;;;;;;9.33;6.75;;;;;;;16.56;89.95;99106.77;1698889;82;20967;-71
2021/06/16 01:58:06;;;;;;;11.53;6.67;;;;;;;16.58;90.18;99125.80;1725904;81;20963;-71
2021/06/16 02:00:32;;;;;;;10.25;7.70;;;;;;;16.53;90.39;99147.67;1717429;82;21085;-71
2021/06/16 02:03:00;;;;;;;10.78;7.35;;;;;;;16.45;90.54;99135.64;1730488;82;20995;-72
2021/06/16 02:05:27;;;;;;;9.53;7.58;;;;;;;16.43;90.86;99128.28;1730502;82;20934;-72
2021/06/16 02:08:02;;;;;;;9.60;7.70;;;;;;;16.43;90.94;99124.13;1701987;82;21072;-71
2021/06/16 02:10:40;;;;;;;10.28;7.30;;;;;;;16.45;91.05;99125.94;1725319;82;21438;-72
2021/06/16 02:13:08;;;;;;;14.15;7.08;;;;;;;16.43;91.20;99122.73;1731570;82;21109;-72
2021/06/16 02:15:58;;;;;;;10.25;7.00;;;;;;;16.45;91.43;99121.78;1732078;81;20951;-72
2021/06/16 02:18:32;;;;;;;11.38;7.60;;;;;;;16.47;91.54;99122.23;1731708;82;20933;-72
2021/06/16 02:20:59;;;;;;;10.38;7.30;;;;;;;16.50;91.65;99140.89;1728758;82;21451;-71
2021/06/16 02:23:25;;;;;;;10.32;7.30;;;;;;;16.49;91.70;99141.25;1727800;82;20966;-71
2021/06/16 02:25:52;;;;;;;15.15;6.95;;;;;;;16.49;91.65;99152.34;1734932;82;21558;-71
2021/06/16 02:28:19;;;;;;;8.78;7.03;;;;;;;16.48;91.68;99148.77;1733022;82;21028;-78
2021/06/16 02:30:45;;;;;;;12.60;7.10;;;;;;;16.48;91.80;99150.15;1735651;82;20976;-71
2021/06/16 02:33:14;;;;;;;8.40;7.05;;;;;;;16.51;92.18;99144.47;1722193;82;21043;-71
2021/06/16 02:35:40;;;;;;;10.90;7.62;;;;;;;16.55;92.10;99145.34;1729058;82;20984;-71
2021/06/16 02:38:11;;;;;;;8.85;6.95;;;;;;;16.58;92.19;99145.19;1735164;82;21151;-70
2021/06/16 02:40:39;;;;;;;18.70;7.87;;;;;;;16.61;92.57;99137.53;1725632;81;20922;-71
2021/06/16 02:43:07;;;;;;;8.93;7.37;;;;;;;16.67;92.90;99138.30;1721033;82;20936;-71
2021/06/16 02:45:37;;;;;;;16.55;8.23;;;;;;;16.72;92.77;99139.97;1722577;81;20873;-72
2021/06/16 02:48:06;;;;;;;14.80;8.88;;;;;;;16.79;92.83;99136.72;1719521;81;21019;-71
2021/06/16 02:50:33;;;;;;;12.73;6.95;;;;;;;16.91;93.47;99141.88;1724895;82;21784;-71
2021/06/16 02:53:08;;;;;;;12.50;7.28;;;;;;;17.01;93.04;99153.17;1717363;82;20893;-71
2021/06/16 02:55:38;;;;;;;12.25;7.30;;;;;;;17.07;92.56;99150.90;1723922;81;21003;-72
2021/06/16 02:58:05;;;;;;;8.88;6.97;;;;;;;17.14;91.95;99146.87;1716508;83;20941;-71
2021/06/16 03:00:31;;;;;;;12.58;7.67;;;;;;;17.21;91.42;99146.20;1719136;82;21036;-71
2021/06/16 03:02:58;;;;;;;9.33;7.28;;;;;;;17.28;90.89;99137.41;1718947;81;21214;-71
2021/06/16 03:05:27;;;;;;;7.92;7.05;;;;;;;17.35;90.59;99130.57;1729709;81;20976;-71
2021/06/16 03:07:57;;;;;;;12.68;7.08;;;;;;;17.46;90.28;99132.94;1731682;81;21106;-71
2021/06/16 03:10:26;;;;;;;8.83;7.17;;;;;;;17.51;89.38;99127.66;1725802;80;21620;-71
2021/06/16 03:12:54;;;;;;;11.15;7.87;;;;;;;17.57;88.68;99132.31;1724464;81;21047;-72
2021/06/16 03:15:20;;;;;;;12.35;7.45;;;;;;;17.60;87.99;99130.98;1733177;82;21133;-71
2021/06/16 03:17:48;;;;;;;8.08;6.80;;;;;;;17.63;88.12;99130.83;1739728;81;21424;-71
2021/06/16 03:20:20;;;;;;;8.88;7.03;;;;;;;17.65;88.09;99132.08;1726207;81;20968;-72
2021/06/16 03:22:46;;;;;;;;;;;;;;;17.67;87.61;99131.13;1717891;82;21530;-71
2021/06/16 03:25:13;;;;;;;13.58;7.28;;;;;;;17.73;87.21;99131.61;1709105;82;20449;-71
2021/06/16 03:27:39;;;;;;;14.60;7.37;;;;;;;17.76;87.08;99137.80;1709939;81;21061;-72
2021/06/16 03:30:07;;;;;;;10.68;6.87;;;;;;;17.80;86.93;99135.88;1701167;82;20940;-71
2021/06/16 03:32:35;;;;;;;10.55;6.65;;;;;;;17.83;86.71;99131.56;1718264;82;21007;-72
2021/06/16 03:35:04;;;;;;;13.20;7.12;;;;;;;17.84;86.62;99132.57;1709293;82;21049;-72
2021/06/16 03:37:32;;;;;;;9.85;7.53;;;;;;;17.81;86.59;99136.90;1711278;82;21449;-72
2021/06/16 03:40:01;;;;;;;13.05;7.40;;;;;;;17.79;87.00;99137.86;1703661;82;20942;-72
2021/06/16 03:42:27;;;;;;;11.35;7.37;;;;;;;17.76;87.26;99139.99;1708312;82;20960;-72
2021/06/16 03:44:54;;;;;;;13.00;8.78;;;;;;;17.66;87.58;99142.02;1715058;81;21050;-71
2021/06/16 03:47:21;;;;;;;11.43;8.25;;;;;;;17.57;88.74;99140.64;1714590;81;21102;-72
2021/06/16 03:49:48;;;;;;;13.22;7.60;;;;;;;17.48;89.30;99145.05;1718866;81;20982;-71
2021/06/16 03:52:15;;;;;;;16.62;8.30;;;;;;;17.39;90.31;99145.89;1711133;81;21117;-72
2021/06/16 03:54:43;;;;;;;11.73;8.05;;;;;;;17.31;90.94;99144.20;1720352;82;20985;-72
2021/06/16 03:57:10;;;;;;;8.98;7.35;;;;;;;17.25;91.47;99143.70;1691313;82;21020;-72
2021/06/16 03:59:38;;;;;;;13.83;8.10;;;;;;;17.24;91.82;99149.63;1697120;82;20940;-73
2021/06/16 04:02:05;;;;;;;10.03;8.33;;;;;;;17.22;92.28;99150.58;1708622;82;20943;-72
2021/06/16 04:04:32;;;;;;;9.23;7.33;;;;;;;17.20;92.58;99148.75;1711078;82;21151;-72
2021/06/16 04:07:01;;;;;;;14.10;8.20;;;;;;;17.19;93.20;99145.77;1730074;82;21014;-72
2021/06/16 04:09:28;;;;;;;12.98;8.38;;;;;;;17.18;93.37;99152.48;1718112;82;20970;-72
2021/06/16 04:11:54;;;;;;;11.57;8.00;;;;;;;17.13;93.70;99150.81;1726777;82;21054;-72
2021/06/16 04:14:23;;;;;;;12.15;8.25;;;;;;;17.09;94.29;99159.07;1717584;82;21539;-71
2021/06/16 04:16:53;;;;;;;11.63;8.18;;;;;;;17.09;94.58;99163.81;1726406;82;21058;-72
2021/06/16 04:19:19;;;;;;;10.35;8.58;;;;;;;17.08;95.07;99172.72;1721155;82;21105;-71
2021/06/16 04:21:46;;;;;;;11.10;8.50;;;;;;;17.10;95.55;99170.97;1723914;82;21534;-73
2021/06/16 04:24:12;;;;;;;10.63;8.75;;;;;;;17.10;96.14;99167.61;1727855;82;20921;-72
2021/06/16 04:26:40;;;;;;;12.25;8.65;;;;;;;17.11;96.35;99163.66;1727680;82;21002;-71
2021/06/16 04:29:07;;;;;;;13.88;9.33;;;;;;;17.11;96.80;99158.12;1731236;81;21160;-72
2021/06/16 04:31:35;;;;;;;15.80;8.40;;;;;;;17.11;97.06;99164.25;1734240;82;20959;-71
2021/06/16 04:34:01;;;;;;;13.22;8.80;;;;;;;17.11;97.46;99167.83;1727542;82;21581;-72
2021/06/16 04:36:28;;;;;;;15.08;8.60;;;;;;;17.14;97.99;99170.45;1723898;82;21105;-71
2021/06/16 04:38:55;;;;;;;11.12;8.35;;;;;;;17.21;98.34;99169.77;1730070;81;21046;-72
2021/06/16 04:41:22;;;;;;;14.05;9.55;;;;;;;17.27;98.32;99167.72;1718713;82;22047;-73
2021/06/16 04:43:48;;;;;;;14.23;9.70;;;;;;;17.38;99.04;99160.94;1720251;82;21018;-74
2021/06/16 04:46:15;;;;;;;11.55;9.60;;;;;;;17.51;99.22;99166.52;1716273;82;21677;-73
2021/06/16 04:48:42;;;;;;;14.93;9.60;;;;;;;17.65;99.67;99164.56;1708493;83;21043;-72
2021/06/16 04:51:09;;;;;;;9.68;8.23;;;;;;;17.81;99.08;99170.22;1707771;82;21110;-70
2021/06/16 04:53:35;;;;;;;11.85;8.53;;;;;;;17.90;98.08;99169.15;1736763;82;22174;-69
2021/06/16 04:56:04;;;;;;;11.08;8.73;;;;;;;17.95;97.21;99170.99;1727911;82;21510;-70
2021/06/16 04:58:30;;;;;;;13.08;9.05;;;;;;;18.02;96.88;99168.91;1721045;81;20975;-72
2021/06/16 05:00:57;;;;;;;12.45;8.20;;;;;;;18.07;96.20;99161.05;1696240;81;21015;-73
2021/06/16 05:03:23;;;;;;;12.98;8.15;;;;;;;18.11;95.99;99168.05;1738831;81;21555;-75
2021/06/16 05:05:50;;;;;;;11.90;8.25;;;;;;;18.11;95.76;99175.80;1720101;82;21096;-77
2021/06/16 05:08:16;;;;;;;11.73;8.20;;;;;;;18.15;95.79;99173.88;1727277;81;21469;-70
2021/06/16 05:10:43;;;;;;;9.48;8.33;;;;;;;18.15;94.67;99172.48;1732350;82;20903;-72
2021/06/16 05:13:10;;;;;;;11.10;8.45;;;;;;;18.15;94.32;99168.91;1735325;82;22275;-69
2021/06/16 05:15:36;;;;;;;13.28;9.15;;;;;;;18.25;95.07;99170.23;1713500;82;21513;-69
2021/06/16 05:18:05;;;;;;;13.38;8.40;;;;;;;18.40;95.87;99172.83;1698784;82;21439;-70
2021/06/16 05:20:32;;;;;;;10.90;8.75;;;;;;;18.63;96.07;99177.48;1721384;82;21463;-70
2021/06/16 05:22:59;;;;;;;9.70;7.47;;;;;;;18.84;95.64;99179.14;1717397;82;21015;-74
2021/06/16 05:25:25;;;;;;;15.28;8.50;;;;;;;19.01;93.62;99184.11;1724585;82;21029;-75
2021/06/16 05:27:52;;;;;;;15.10;8.75;;;;;;;19.16;94.13;99183.64;1722851;80;21111;-72
2021/06/16 05:30:20;;;;;;;12.25;8.38;;;;;;;19.30;93.90;99191.33;1727959;82;21115;-69
2021/06/16 05:32:46;;;;;;;12.90;8.48;;;;;;;19.43;92.80;99191.27;1731834;81;20929;-67
2021/06/16 05:35:13;;;;;;;9.60;8.55;;;;;;;19.54;90.86;99190.80;1735715;80;20944;-74
2021/06/16 05:37:45;;;;;;;16.17;9.38;;;;;;;19.67;90.08;99190.69;1722734;80;20954;-69
2021/06/16 05:40:13;;;;;;;11.20;8.48;;;;;;;19.75;89.11;99193.74;1683860;82;21063;-73
2021/06/16 05:42:40;;;;;;;12.03;8.90;;;;;;;19.83;89.00;99195.20;1701335;82;21150;-73
2021/06/16 05:45:08;;;;;;;12.30;8.55;;;;;;;19.96;89.71;99191.72;1705227;83;21076;-71
2021/06/16 05:47:34;;;;;;;11.80;7.28;;;;;;;20.13;87.73;99186.66;1718437;81;21069;-68
2021/06/16 05:50:01;;;;;;;18.82;9.08;;;;;;;20.24;87.04;99187.50;1714987;82;21018;-70
2021/06/16 05:52:28;;;;;;;14.47;9.10;;;;;;;20.34;86.19;99190.35;1719647;81;20876;-71
2021/06/16 05:54:54;;;;;;;15.30;8.20;;;;;;;20.40;84.94;99191.61;1730703;82;21149;-70
2021/06/16 05:57:21;;;;;;;11.25;7.97;;;;;;;20.40;84.45;99187.43;1736960;81;21629;-77
2021/06/16 05:59:47;;;;;;;12.68;8.50;;;;;;;20.40;84.44;99186.63;1733956;82;20978;-69
2021/06/16 06:02:14;;;;;;;13.43;8.73;;;;;;;20.43;84.57;99195.02;1719072;82;21076;-72
2021/06/16 06:04:40;;;;;;;10.50;9.05;;;;;;;20.47;84.61;99195.03;1732849;82;20939;-76
2021/06/16 06:07:07;;;;;;;11.10;8.60;;;;;;;20.52;84.52;99196.05;1704124;82;21137;-71
2021/06/16 06:09:33;;;;;;;13.55;8.83;;;;;;;20.58;84.60;99195.09;1714183;81;21105;-71
2021/06/16 06:12:00;;;;;;;9.58;8.55;;;;;;;20.64;83.62;99194.33;1736098;81;20937;-74
2021/06/16 06:14:27;;;;;;;11.53;8.55;;;;;;;20.65;83.26;99197.91;1723796;81;21091;-69
2021/06/16 06:16:53;;;;;;;12.58;8.58;;;;;;;20.64;83.02;99198.51;1723403;81;21158;-71
2021/06/16 06:19:20;;;;;;;9.23;8.20;;;;;;;20.69;83.38;99198.13;1720500;82;21101;-76
2021/06/16 06:21:46;;;;;;;13.60;9.70;;;;;;;20.84;84.03;99197.56;1724416;82;20945;-74
2021/06/16 06:24:13;;;;;;;12.68;8.53;;;;;;;20.99;83.74;99196.42;1725430;82;20958;-73
2021/06/16 06:26:40;;;;;;;10.30;8.50;;;;;;;21.10;81.98;99196.46;1727797;81;20884;-73
2021/06/16 06:29:06;;;;;;;13.20;8.98;;;;;;;21.15;81.35;99200.86;1724727;82;21019;-73
2021/06/16 06:31:33;;;;;;;12.90;9.25;;;;;;;21.16;81.48;99192.69;1727258;82;21142;-73
2021/06/16 06:33:59;;;;;;;11.83;9.63;;;;;;;21.20;82.29;99205.46;1712256;83;20945;-73
2021/06/16 06:36:28;;;;;;;15.00;8.98;;;;;;;21.33;83.07;99198.94;1724244;82;21161;-74
2021/06/16 06:38:55;;;;;;;11.68;8.45;;;;;;;21.50;82.30;99203.72;1734732;81;21120;-74
2021/06/16 06:41:21;;;;;;;13.38;9.20;;;;;;;21.70;81.84;99202.75;1722005;82;21912;-73
2021/06/16 06:43:49;;;;;;;8.98;7.83;;;;;;;21.84;80.47;99203.35;1720965;82;21560;-75
2021/06/16 06:46:15;;;;;;;10.25;8.78;;;;;;;21.92;79.57;99207.14;1730552;81;21010;-74
2021/06/16 06:48:41;;;;;;;13.75;8.85;;;;;;;22.01;79.56;99206.14;1696785;81;21111;-75
2021/06/16 06:51:08;;;;;;;12.73;8.90;;;;;;;22.15;78.64;99205.92;1716537;82;21052;-74
2021/06/16 06:53:34;;;;;;;10.53;8.98;;;;;;;22.37;78.19;99201.30;1719925;81;21074;-74
2021/06/16 06:56:01;;;;;;;11.08;8.25;;;;;;;22.61;77.80;99206.59;1727090;81;22261;-75
2021/06/16 06:58:29;;;;;;;13.35;8.43;;;;;;;22.74;76.36;99203.55;1715318;82;21038;-74
2021/06/16 07:00:55;;;;;;;12.58;9.33;;;;;;;22.74;75.21;99204.16;1722089;82;21031;-75
2021/06/16 07:03:22;;;;;;;13.38;9.43;;;;;;;22.68;75.38;99211.38;1729635;82;20956;-74
2021/06/16 07:05:48;;;;;;;10.68;7.95;;;;;;;22.61;75.53;99206.59;1735760;81;21127;-75
2021/06/16 07:08:14;;;;;;;10.75;8.18;;;;;;;22.58;74.90;99210.80;1733006;82;21513;-75
2021/06/16 07:10:41;;;;;;;12.58;8.48;;;;;;;22.57;74.16;99210.61;1718094;81;21524;-76
2021/06/16 07:13:07;;;;;;;12.60;7.53;;;;;;;22.55;74.35;99214.41;1720367;82;20972;-74
2021/06/16 07:15:34;;;;;;;8.43;7.58;;;;;;;22.57;73.87;99210.61;1725994;82;21051;-73
2021/06/16 07:18:01;;;;;;;10.23;8.48;;;;;;;22.62;74.11;99208.80;1730151;82;21066;-74
2021/06/16 07:20:27;;;;;;;11.70;8.90;;;;;;;22.71;74.46;99211.96;1716640;82;21118;-73
2021/06/16 07:22:54;;;;;;;11.10;8.20;;;;;;;22.83;74.05;99211.55;1718529;82;21059;-74
2021/06/16 07:25:20;;;;;;;11.30;7.55;;;;;;;23.00;73.58;99219.07;1712996;81;21660;-72
2021/06/16 07:27:47;;;;;;;9.63;7.15;;;;;;;23.15;73.09;99218.97;1732173;82;21495;-73
2021/06/16 07:30:14;;;;;;;11.48;7.12;;;;;;;23.24;71.32;99222.13;1713222;82;21011;-74
2021/06/16 07:32:41;;;;;;;9.30;6.67;;;;;;;23.32;70.16;99218.08;1720435;82;21943;-72
2021/06/16 07:35:08;;;;;;;8.45;6.45;;;;;;;23.41;69.25;99216.23;1712249;81;20949;-74
2021/06/16 07:37:36;;;;;;;10.32;6.62;;;;;;;23.67;69.78;99212.88;1696586;83;21108;-73
2021/06/16 07:40:05;;;;;;;8.53;6.42;;;;;;;24.00;68.46;99215.59;1706330;83;21065;-73
2021/06/16 07:42:31;;;;;;;7.37;6.08;;;;;;;24.29;67.58;99226.73;1696054;83;21003;-74
2021/06/16 07:44:58;;;;;;;9.08;6.28;;;;;;;24.52;65.49;99215.48;1697052;83;21819;-74
2021/06/16 07:47:24;;;;;;;10.18;5.85;;;;;;;24.64;64.00;99209.34;1693925;83;21052;-74
2021/06/16 07:49:51;;;;;;;9.78;5.75;;;;;;;24.78;64.15;99213.98;1712169;83;20902;-75
2021/06/16 07:52:18;;;;;;;8.20;5.70;;;;;;;24.99;65.72;99207.50;1706908;83;21077;-73
2021/06/16 07:54:45;;;;;;;8.50;5.40;;;;;;;25.21;62.26;99203.01;1709224;83;21564;-74
2021/06/16 07:57:11;;;;;;;9.73;5.80;;;;;;;25.28;61.11;99209.33;1707580;83;21089;-73
2021/06/16 07:59:38;;;;;;;7.25;5.12;;;;;;;25.40;61.26;99212.17;1708443;83;21001;-73
2021/06/16 08:02:05;;;;;;;6.12;4.90;;;;;;;25.57;60.62;99211.08;1711561;82;21036;-74
2021/06/16 08:04:36;;;;;;;15.23;6.30;;;;;;;25.72;59.61;99212.30;1719103;81;21468;-74
2021/06/16 08:07:03;;;;;;;4.92;4.45;;;;;;;25.89;61.08;99214.02;1717767;83;20966;-73
2021/06/16 08:09:29;;;;;;;4.75;4.20;;;;;;;26.19;60.11;99208.25;1705616;83;21130;-75
2021/06/16 08:11:56;;;;;;;7.58;4.08;;;;;;;26.43;57.68;99220.92;1710655;82;20981;-74
2021/06/16 08:14:22;;;;;;;5.83;3.50;;;;;;;26.54;54.38;99220.11;1711442;82;21021;-73
2021/06/16 08:16:48;;;;;;;7.47;3.87;;;;;;;26.68;55.60;99231.06;1707151;83;21453;-74
2021/06/16 08:19:15;;;;;;;4.22;3.40;;;;;;;26.80;53.11;99221.98;1705327;83;20954;-73
2021/06/16 08:21:42;;;;;;;4.65;3.70;;;;;;;26.78;53.54;99221.61;1710942;83;21770;-74
2021/06/16 08:24:09;;;;;;;3.83;3.02;;;;;;;26.76;51.89;99219.84;1714685;83;21053;-73
2021/06/16 08:26:36;;;;;;;6.83;3.90;;;;;;;26.62;51.75;99230.77;1711498;83;21112;-74
2021/06/16 08:29:02;;;;;;;4.67;3.75;;;;;;;26.55;51.70;99237.97;1708424;83;20969;-74
2021/06/16 08:31:29;;;;;;;6.22;3.75;;;;;;;26.40;52.34;99240.87;1710742;83;20945;-74
2021/06/16 08:33:55;;;;;;;7.45;4.70;;;;;;;26.23;52.93;99237.73;1710193;83;21109;-75
2021/06/16 08:36:22;;;;;;;5.10;3.85;;;;;;;25.97;52.72;99241.60;1708378;83;21658;-74
2021/06/16 08:38:49;;;;;;;5.87;3.77;;;;;;;25.69;53.39;99246.87;1687448;84;20937;-74
2021/06/16 08:41:15;;;;;;;9.65;4.40;;;;;;;25.46;53.67;99249.78;1698033;83;21037;-75
2021/06/16 08:43:44;;;;;;;5.35;4.08;;;;;;;25.29;54.34;99251.65;1707833;83;21009;-74
2021/06/16 08:46:13;;;;;;;5.12;3.80;;;;;;;25.19;55.39;99252.58;1714836;83;21209;-74
2021/06/16 08:48:41;;;;;;;21.70;4.50;;;;;;;25.09;53.75;99255.53;1713208;83;20894;-74
2021/06/16 08:51:08;;;;;;;21.95;4.17;;;;;;;25.01;54.95;99261.84;1715067;83;21057;-73
2021/06/16 08:53:36;;;;;;;4.28;3.33;;;;;;;25.00;55.29;99261.05;1680192;83;21064;-73
2021/06/16 08:56:03;;;;;;;6.45;3.98;;;;;;;25.04;54.19;99257.40;1723995;82;21541;-74
2021/06/16 08:58:39;;;;;;;8.63;4.40;;;;;;;25.02;54.13;99255.01;1732750;82;21117;-74
2021/06/16 09:01:08;;;;;;;6.37;3.70;;;;;;;25.03;54.54;99262.83;1727946;82;21050;-73
2021/06/16 09:03:35;;;;;;;4.72;4.10;;;;;;;25.09;54.41;99255.53;1731538;82;21040;-74
2021/06/16 09:06:08;;;;;;;7.12;4.05;;;;;;;25.16;52.82;99253.42;1729163;82;21039;-73
2021/06/16 09:09:01;;;;;;;6.37;2.87;;;;;;;25.17;52.91;99252.20;1736709;81;20997;-74
2021/06/16 09:11:32;;;;;;;8.55;3.30;;;;;;;25.27;53.09;99254.69;1733808;82;21800;-74
2021/06/16 09:14:15;;;;;;;5.08;2.83;;;;;;;25.35;53.17;99254.78;1722540;82;20903;-74
2021/06/16 09:16:41;;;;;;;9.70;3.17;;;;;;;25.45;53.11;99259.43;1724005;82;20940;-74
2021/06/16 09:19:30;;;;;;;3.40;2.95;;;;;;;25.55;52.90;99261.91;1717941;82;20908;-73
2021/06/16 09:22:03;;;;;;;4.65;2.98;;;;;;;25.59;53.08;99262.04;1726301;82;20928;-74
2021/06/16 09:24:43;;;;;;;3.22;2.50;;;;;;;25.64;50.33;99265.81;1725537;82;21136;-73
2021/06/16 09:27:10;;;;;;;6.97;2.80;;;;;;;25.63;49.88;99264.19;1734552;82;21424;-75
2021/06/16 09:29:36;;;;;;;10.78;3.05;;;;;;;25.63;49.25;99269.81;1736840;82;21436;-75
2021/06/16 09:32:04;;;;;;;7.80;2.70;;;;;;;25.60;49.87;99262.23;1730048;82;20920;-74
2021/06/16 09:34:31;;;;;;;8.08;3.15;;;;;;;25.52;49.46;99262.75;1721601;82;21026;-73
2021/06/16 09:37:01;;;;;;;2.92;2.42;;;;;;;25.42;49.00;99257.47;1726917;80;21118;-71
2021/06/16 09:39:28;;;;;;;5.10;2.20;;;;;;;25.44;49.38;99256.44;1724064;81;20935;-75
2021/06/16 09:42:13;;;;;;;3.55;2.20;;;;;;;25.53;48.75;99258.72;1713006;82;20935;-74
2021/06/16 09:44:50;;;;;;;5.90;2.00;;;;;;;25.65;48.60;99264.59;1727730;81;21133;-74
2021/06/16 09:47:23;;;;;;;5.90;2.10;;;;;;;25.75;46.14;99264.25;1719448;81;20999;-73
2021/06/16 09:49:59;;;;;;;2.87;1.87;;;;;;;25.81;45.11;99261.75;1725723;82;21511;-72
2021/06/16 09:52:36;;;;;;;2.72;1.90;;;;;;;25.97;45.77;99255.66;1720101;82;20948;-74
2021/06/16 09:55:14;;;;;;;3.30;1.95;;;;;;;26.25;45.38;99259.98;1720882;82;21099;-75
2021/06/16 09:58:04;;;;;;;2.98;1.80;;;;;;;26.48;43.88;99256.41;1722422;80;21004;-71
2021/06/16 10:00:34;;;;;;;5.90;1.98;;;;;;;26.65;43.65;99249.61;1716112;82;21495;-76
2021/06/16 10:03:17;;;;;;;2.83;2.00;;;;;;;26.82;44.19;99258.95;1718068;82;21151;-72
2021/06/16 10:06:07;;;;;;;4.42;1.90;;;;;;;27.00;43.52;99252.19;1727833;82;20972;-71
2021/06/16 10:08:49;;;;;;;4.58;2.15;;;;;;;27.11;42.41;99256.38;1723305;81;22157;-73
2021/06/16 10:11:19;;;;;;;2.47;1.95;;;;;;;27.12;42.15;99251.54;1710624;83;21072;-75
2021/06/16 10:13:46;;;;;;;2.67;2.05;;;;;;;26.92;42.59;99264.98;1709737;83;21549;-74
2021/06/16 10:16:13;;;;;;;2.42;1.77;;;;;;;26.70;42.56;99253.95;1708717;82;21179;-72
2021/06/16 10:18:43;;;;;;;7.15;2.08;;;;;;;26.69;43.16;99249.55;1725042;82;20999;-73
2021/06/16 10:21:09;;;;;;;3.90;1.90;;;;;;;26.81;43.71;99237.64;1727224;81;21039;-73
2021/06/16 10:23:36;;;;;;;4.37;2.00;;;;;;;27.22;44.08;99245.65;1714803;82;20995;-73
2021/06/16 10:26:15;;;;;;;4.20;1.72;;;;;;;27.74;43.30;99237.04;1731663;82;21107;-74
2021/06/16 10:28:59;;;;;;;5.72;1.92;;;;;;;28.20;41.77;99239.52;1731158;81;21130;-75
2021/06/16 10:31:39;;;;;;;5.15;1.70;;;;;;;28.50;39.58;99239.73;1738135;81;21487;-72
2021/06/16 10:34:06;;;;;;;3.90;1.72;;;;;;;28.52;39.68;99245.73;1743789;81;21676;-71
2021/06/16 10:36:32;;;;;;;2.90;1.70;;;;;;;28.69;40.18;99245.70;1710660;81;21062;-71
2021/06/16 10:39:07;;;;;;;5.33;1.65;;;;;;;29.02;40.45;99243.55;1703406;82;21124;-72
2021/06/16 10:41:51;;;;;;;2.25;1.70;;;;;;;29.34;39.25;99239.16;1733133;82;21140;-72
2021/06/16 10:44:26;;;;;;;6.00;2.10;;;;;;;29.56;37.54;99236.47;1725946;82;21051;-72
2021/06/16 10:47:05;;;;;;;5.17;1.57;;;;;;;29.71;36.33;99232.56;1731901;81;21042;-71
2021/06/16 10:49:55;;;;;;;6.80;1.75;;;;;;;29.90;36.51;99227.30;1703239;82;20972;-72
2021/06/16 10:52:25;;;;;;;3.00;1.65;;;;;;;30.12;36.62;99221.72;1729154;82;21087;-72
2021/06/16 10:55:04;;;;;;;5.70;1.70;;;;;;;30.27;36.96;99224.85;1726208;82;21155;-72
2021/06/16 10:57:32;;;;;;;2.58;1.50;;;;;;;30.25;36.35;99215.39;1727536;81;21111;-72
2021/06/16 11:00:09;;;;;;;1.65;1.55;;;;;;;30.27;36.49;99222.81;1669601;83;21021;-72
2021/06/16 11:02:42;;;;;;;2.72;1.60;;;;;;;30.08;36.39;99225.28;1707368;83;21073;-72
2021/06/16 11:05:29;;;;;;;3.72;1.75;;;;;;;30.06;36.43;99228.57;1705237;83;21488;-73
2021/06/16 11:07:54;;;;;;;2.67;1.45;;;;;;;30.19;36.10;99235.00;1694253;83;21141;-71
2021/06/16 11:10:21;;;;;;;2.37;1.85;;;;;;;30.56;35.10;99233.94;1682891;84;21101;-71
2021/06/16 11:12:53;;;;;;;6.25;1.77;;;;;;;30.94;34.19;99226.68;1695809;83;21057;-71
2021/06/16 11:15:34;;;;;;;4.15;2.80;;;;;;;31.30;33.54;99233.84;1715638;82;21059;-71
2021/06/16 11:18:01;;;;;;;3.47;1.80;;;;;;;31.52;32.91;99224.66;1703716;82;20952;-72
2021/06/16 11:20:34;;;;;;;4.30;1.52;;;;;;;31.67;32.57;99217.78;1722665;82;21965;-72
2021/06/16 11:23:03;;;;;;;2.77;2.17;;;;;;;31.72;32.79;99227.92;1736181;81;20960;-72
2021/06/16 11:25:39;;;;;;;2.50;1.55;;;;;;;31.55;32.86;99229.40;1727840;82;21046;-72
2021/06/16 11:28:18;;;;;;;4.53;1.90;;;;;;;31.46;33.23;99225.89;1733270;82;21031;-72
2021/06/16 11:31:02;;;;;;;2.22;1.60;;;;;;;31.49;33.49;99221.33;1721807;82;21034;-72
2021/06/16 11:33:34;;;;;;;5.58;1.62;;;;;;;31.68;33.79;99219.39;1715722;82;21198;-74
2021/06/16 11:36:13;;;;;;;2.58;1.80;;;;;;;31.87;33.24;99228.73;1723829;82;21033;-74
2021/06/16 11:38:55;;;;;;;3.40;1.50;;;;;;;31.87;31.07;99224.48;1685009;82;21138;-74